world map with GZT marked

GZT - Airport

This information may not be accurate or current and is not valid for navigation or flight planning. No warranty of fitness for any purpose is made or implied.

flag of Turkey

Donate via PayPal

Additional information is available on the NEW Great Circle Mapper

Location
City:  Gaziantep, Gaziantep, Turkey
Name:Oguzeli
ICAO / IATA:LTAJ / GZT

Details
Type:Airport (Aerodrome, Airfield)
Latitude:36°56'50"N (36.947183)
Longitude:37°28'43"E (37.478683)
Datum:WGS 1984
Elevation:2315 ft (706 m)
Runways:2
Longest:9842 × 100 ft (3000 × 30.5 m)

Time
Timezone:UTC+3 (DST+5)
Local Time:

Weather
METAR:LTAJ  041350Z 08007KT 050V110 CAVOK 12/00 Q1025 NOSIG RMK RWY10 08008KT
TAF:LTAJ  (expired)

Related Locations
Nearby:
Farthest:RVV: 11481 mi / 18477 km
Raivavae, Tubuai Islands, Austral Islands, PF

Find:

   beyond  
but within

Other Information
Maps:
Sources:

  


 


Great Circle Mapper   Great Circle Mapper
Great Circle Mapper FAQ   Great Circle Mapper FAQ
  Karl's Home Page
KLSē   KLSē Home
   GC on Facebook
Airlines of the World   Airlines of the World
Donate via PayPal


Copyright © 2004-2019, Karl L. Swartz. All rights reserved.
All trademarks mentioned herein belong to their respective owners.

Please see credits for attribution and copyright information.

Karl Swartz <karl@kls2.com>
  Powered by FreeBSD
Valid HTML 4.01!
Labeled with ICRA
hCard Microformat
Geo Microformat